sensor_id;sensor_type;location;lat;lon;timestamp;P1;durP1;ratioP1;P2;durP2;ratioP2
793;SDS011;380;48.738;9.214;2023-02-05T00:02:16;8.88;;;5.40;;
793;SDS011;380;48.738;9.214;2023-02-05T00:04:42;8.40;;;5.03;;
793;SDS011;380;48.738;9.214;2023-02-05T00:07:08;10.60;;;5.82;;
793;SDS011;380;48.738;9.214;2023-02-05T00:09:34;5.50;;;4.07;;
793;SDS011;380;48.738;9.214;2023-02-05T00:12:01;4.95;;;3.55;;
793;SDS011;380;48.738;9.214;2023-02-05T00:14:27;10.18;;;4.90;;
793;SDS011;380;48.738;9.214;2023-02-05T00:16:53;10.63;;;5.97;;
793;SDS011;380;48.738;9.214;2023-02-05T00:19:19;7.93;;;3.88;;
793;SDS011;380;48.738;9.214;2023-02-05T00:21:45;6.97;;;5.28;;
793;SDS011;380;48.738;9.214;2023-02-05T00:24:11;5.45;;;3.85;;
793;SDS011;380;48.738;9.214;2023-02-05T00:26:37;5.38;;;4.68;;
793;SDS011;380;48.738;9.214;2023-02-05T00:29:03;7.82;;;5.05;;
793;SDS011;380;48.738;9.214;2023-02-05T00:31:29;6.68;;;4.22;;
793;SDS011;380;48.738;9.214;2023-02-05T00:33:55;6.03;;;3.80;;
793;SDS011;380;48.738;9.214;2023-02-05T00:36:23;12.45;;;5.40;;
793;SDS011;380;48.738;9.214;2023-02-05T00:38:49;7.80;;;4.63;;
793;SDS011;380;48.738;9.214;2023-02-05T00:41:15;10.13;;;5.88;;
793;SDS011;380;48.738;9.214;2023-02-05T00:43:42;5.85;;;4.88;;
793;SDS011;380;48.738;9.214;2023-02-05T00:46:09;6.15;;;3.75;;
793;SDS011;380;48.738;9.214;2023-02-05T00:48:35;15.40;;;5.68;;
793;SDS011;380;48.738;9.214;2023-02-05T00:51:01;8.02;;;4.13;;
793;SDS011;380;48.738;9.214;2023-02-05T00:53:27;6.88;;;4.45;;
793;SDS011;380;48.738;9.214;2023-02-05T00:55:53;15.35;;;5.10;;
793;SDS011;380;48.738;9.214;2023-02-05T00:58:19;5.65;;;4.78;;
793;SDS011;380;48.738;9.214;2023-02-05T01:00:45;6.60;;;5.67;;
793;SDS011;380;48.738;9.214;2023-02-05T01:03:11;10.27;;;6.10;;
793;SDS011;380;48.738;9.214;2023-02-05T01:05:38;13.05;;;6.40;;
793;SDS011;380;48.738;9.214;2023-02-05T01:08:05;6.38;;;5.22;;
793;SDS011;380;48.738;9.214;2023-02-05T01:10:31;10.88;;;5.40;;
793;SDS011;380;48.738;9.214;2023-02-05T01:12:57;13.30;;;6.82;;
793;SDS011;380;48.738;9.214;2023-02-05T01:15:23;7.28;;;5.80;;
793;SDS011;380;48.738;9.214;2023-02-05T01:17:49;11.23;;;5.55;;
793;SDS011;380;48.738;9.214;2023-02-05T01:20:15;9.90;;;6.73;;
793;SDS011;380;48.738;9.214;2023-02-05T01:22:41;10.88;;;6.03;;
793;SDS011;380;48.738;9.214;2023-02-05T01:25:07;9.35;;;6.65;;
793;SDS011;380;48.738;9.214;2023-02-05T01:27:34;16.55;;;7.00;;
793;SDS011;380;48.738;9.214;2023-02-05T01:30:00;11.03;;;7.30;;
793;SDS011;380;48.738;9.214;2023-02-05T01:32:26;14.52;;;6.25;;
793;SDS011;380;48.738;9.214;2023-02-05T01:34:52;12.57;;;6.97;;
793;SDS011;380;48.738;9.214;2023-02-05T01:37:18;14.02;;;5.30;;
793;SDS011;380;48.738;9.214;2023-02-05T01:39:44;12.65;;;6.00;;
793;SDS011;380;48.738;9.214;2023-02-05T01:42:17;8.40;;;5.27;;
793;SDS011;380;48.738;9.214;2023-02-05T01:44:43;8.47;;;6.03;;
793;SDS011;380;48.738;9.214;2023-02-05T01:47:09;7.82;;;5.88;;
793;SDS011;380;48.738;9.214;2023-02-05T01:49:37;5.30;;;4.53;;
793;SDS011;380;48.738;9.214;2023-02-05T01:52:11;15.77;;;8.38;;
793;SDS011;380;48.738;9.214;2023-02-05T01:54:40;9.15;;;5.78;;
793;SDS011;380;48.738;9.214;2023-02-05T01:57:16;8.48;;;5.43;;
793;SDS011;380;48.738;9.214;2023-02-05T01:59:43;8.55;;;5.55;;
793;SDS011;380;48.738;9.214;2023-02-05T02:02:09;7.93;;;5.63;;
793;SDS011;380;48.738;9.214;2023-02-05T02:04:37;13.57;;;5.37;;
793;SDS011;380;48.738;9.214;2023-02-05T02:07:03;11.10;;;6.30;;
793;SDS011;380;48.738;9.214;2023-02-05T02:09:30;14.70;;;7.70;;
793;SDS011;380;48.738;9.214;2023-02-05T02:11:56;11.70;;;7.27;;
793;SDS011;380;48.738;9.214;2023-02-05T02:14:23;10.65;;;6.63;;
793;SDS011;380;48.738;9.214;2023-02-05T02:16:49;6.25;;;4.32;;
793;SDS011;380;48.738;9.214;2023-02-05T02:19:17;7.23;;;6.13;;
793;SDS011;380;48.738;9.214;2023-02-05T02:24:36;12.80;;;7.23;;
793;SDS011;380;48.738;9.214;2023-02-05T02:29:35;8.13;;;4.95;;
793;SDS011;380;48.738;9.214;2023-02-05T02:32:04;13.00;;;7.70;;
793;SDS011;380;48.738;9.214;2023-02-05T02:34:50;9.52;;;7.32;;
793;SDS011;380;48.738;9.214;2023-02-05T02:40:22;11.17;;;7.93;;
793;SDS011;380;48.738;9.214;2023-02-05T02:45:21;6.05;;;5.32;;
793;SDS011;380;48.738;9.214;2023-02-05T02:47:51;9.00;;;8.00;;
793;SDS011;380;48.738;9.214;2023-02-05T02:50:20;6.90;;;6.17;;
793;SDS011;380;48.738;9.214;2023-02-05T02:52:47;10.43;;;7.23;;
793;SDS011;380;48.738;9.214;2023-02-05T02:55:15;8.27;;;5.60;;
793;SDS011;380;48.738;9.214;2023-02-05T02:57:42;10.27;;;5.93;;
793;SDS011;380;48.738;9.214;2023-02-05T03:00:12;8.02;;;7.13;;
793;SDS011;380;48.738;9.214;2023-02-05T03:02:39;8.65;;;6.50;;
793;SDS011;380;48.738;9.214;2023-02-05T03:05:08;6.77;;;5.90;;
793;SDS011;380;48.738;9.214;2023-02-05T03:07:37;11.77;;;7.53;;
793;SDS011;380;48.738;9.214;2023-02-05T03:10:10;8.80;;;5.87;;
793;SDS011;380;48.738;9.214;2023-02-05T03:12:37;9.77;;;6.50;;
793;SDS011;380;48.738;9.214;2023-02-05T03:15:03;9.97;;;7.00;;
793;SDS011;380;48.738;9.214;2023-02-05T03:17:29;8.97;;;6.83;;
793;SDS011;380;48.738;9.214;2023-02-05T03:19:58;5.83;;;5.17;;
793;SDS011;380;48.738;9.214;2023-02-05T03:24:52;12.38;;;6.78;;
793;SDS011;380;48.738;9.214;2023-02-05T03:27:18;8.37;;;7.03;;
793;SDS011;380;48.738;9.214;2023-02-05T03:29:45;9.80;;;6.47;;
793;SDS011;380;48.738;9.214;2023-02-05T03:34:52;6.85;;;5.53;;
793;SDS011;380;48.738;9.214;2023-02-05T03:42:29;14.07;;;7.03;;
793;SDS011;380;48.738;9.214;2023-02-05T03:47:36;8.07;;;5.63;;
793;SDS011;380;48.738;9.214;2023-02-05T03:50:37;9.40;;;5.97;;
793;SDS011;380;48.738;9.214;2023-02-05T03:55:40;10.60;;;4.87;;
793;SDS011;380;48.738;9.214;2023-02-05T03:58:09;8.43;;;6.30;;
793;SDS011;380;48.738;9.214;2023-02-05T04:00:37;6.73;;;5.20;;
793;SDS011;380;48.738;9.214;2023-02-05T04:03:04;7.20;;;6.18;;
793;SDS011;380;48.738;9.214;2023-02-05T04:05:30;10.63;;;6.60;;
793;SDS011;380;48.738;9.214;2023-02-05T04:07:56;9.13;;;5.53;;
793;SDS011;380;48.738;9.214;2023-02-05T04:10:22;11.73;;;5.67;;
793;SDS011;380;48.738;9.214;2023-02-05T04:12:48;9.87;;;5.50;;
793;SDS011;380;48.738;9.214;2023-02-05T04:15:14;8.67;;;5.80;;
793;SDS011;380;48.738;9.214;2023-02-05T04:17:40;8.43;;;5.43;;
793;SDS011;380;48.738;9.214;2023-02-05T04:20:06;8.87;;;6.60;;
793;SDS011;380;48.738;9.214;2023-02-05T04:22:32;13.10;;;5.80;;
793;SDS011;380;48.738;9.214;2023-02-05T04:24:58;6.80;;;6.10;;
793;SDS011;380;48.738;9.214;2023-02-05T04:27:24;7.23;;;5.67;;
793;SDS011;380;48.738;9.214;2023-02-05T04:29:50;10.80;;;6.43;;
793;SDS011;380;48.738;9.214;2023-02-05T04:32:16;5.43;;;4.33;;
793;SDS011;380;48.738;9.214;2023-02-05T04:34:42;8.97;;;5.43;;
793;SDS011;380;48.738;9.214;2023-02-05T04:37:08;7.00;;;5.43;;
793;SDS011;380;48.738;9.214;2023-02-05T04:39:34;6.20;;;4.80;;
793;SDS011;380;48.738;9.214;2023-02-05T04:42:00;6.93;;;5.77;;
793;SDS011;380;48.738;9.214;2023-02-05T04:44:26;7.85;;;5.82;;
793;SDS011;380;48.738;9.214;2023-02-05T04:46:52;10.93;;;5.17;;
793;SDS011;380;48.738;9.214;2023-02-05T04:49:18;7.78;;;5.18;;
793;SDS011;380;48.738;9.214;2023-02-05T04:51:44;7.60;;;5.73;;
793;SDS011;380;48.738;9.214;2023-02-05T04:54:10;6.53;;;5.27;;
793;SDS011;380;48.738;9.214;2023-02-05T04:56:37;6.87;;;5.43;;
793;SDS011;380;48.738;9.214;2023-02-05T04:59:03;7.73;;;5.37;;
793;SDS011;380;48.738;9.214;2023-02-05T05:01:29;8.43;;;6.80;;
793;SDS011;380;48.738;9.214;2023-02-05T05:03:55;6.03;;;4.70;;
793;SDS011;380;48.738;9.214;2023-02-05T05:06:21;7.83;;;6.00;;
793;SDS011;380;48.738;9.214;2023-02-05T05:08:47;13.17;;;5.90;;
793;SDS011;380;48.738;9.214;2023-02-05T05:11:14;11.23;;;5.10;;
793;SDS011;380;48.738;9.214;2023-02-05T05:13:40;9.40;;;6.17;;
793;SDS011;380;48.738;9.214;2023-02-05T05:16:07;9.17;;;5.80;;
793;SDS011;380;48.738;9.214;2023-02-05T05:18:33;6.57;;;4.73;;
793;SDS011;380;48.738;9.214;2023-02-05T05:20:59;8.63;;;6.17;;
793;SDS011;380;48.738;9.214;2023-02-05T05:23:25;10.63;;;6.70;;
793;SDS011;380;48.738;9.214;2023-02-05T05:25:51;6.53;;;5.93;;
793;SDS011;380;48.738;9.214;2023-02-05T05:28:17;12.03;;;5.63;;
793;SDS011;380;48.738;9.214;2023-02-05T05:30:44;7.67;;;5.57;;
793;SDS011;380;48.738;9.214;2023-02-05T05:33:10;5.80;;;5.20;;
793;SDS011;380;48.738;9.214;2023-02-05T05:35:36;7.90;;;5.20;;
793;SDS011;380;48.738;9.214;2023-02-05T05:38:02;9.80;;;5.63;;
793;SDS011;380;48.738;9.214;2023-02-05T05:40:29;8.50;;;6.67;;
793;SDS011;380;48.738;9.214;2023-02-05T05:43:15;7.47;;;5.10;;
793;SDS011;380;48.738;9.214;2023-02-05T05:46:00;7.70;;;6.03;;
793;SDS011;380;48.738;9.214;2023-02-05T05:48:27;11.27;;;6.63;;
793;SDS011;380;48.738;9.214;2023-02-05T05:50:53;12.63;;;7.53;;
793;SDS011;380;48.738;9.214;2023-02-05T05:53:19;7.20;;;6.43;;
793;SDS011;380;48.738;9.214;2023-02-05T05:55:45;17.60;;;7.07;;
793;SDS011;380;48.738;9.214;2023-02-05T05:58:11;8.00;;;6.03;;
793;SDS011;380;48.738;9.214;2023-02-05T06:00:37;11.53;;;6.37;;
793;SDS011;380;48.738;9.214;2023-02-05T06:03:04;6.47;;;4.97;;
793;SDS011;380;48.738;9.214;2023-02-05T06:05:30;5.93;;;4.30;;
793;SDS011;380;48.738;9.214;2023-02-05T06:07:56;6.13;;;4.77;;
793;SDS011;380;48.738;9.214;2023-02-05T06:10:22;7.20;;;5.43;;
793;SDS011;380;48.738;9.214;2023-02-05T06:12:48;14.27;;;5.13;;
793;SDS011;380;48.738;9.214;2023-02-05T06:15:16;11.43;;;7.33;;
793;SDS011;380;48.738;9.214;2023-02-05T06:17:42;11.07;;;6.37;;
793;SDS011;380;48.738;9.214;2023-02-05T06:20:09;13.37;;;6.37;;
793;SDS011;380;48.738;9.214;2023-02-05T06:22:35;11.50;;;5.70;;
793;SDS011;380;48.738;9.214;2023-02-05T06:25:01;5.57;;;5.07;;
793;SDS011;380;48.738;9.214;2023-02-05T06:27:28;6.60;;;5.03;;
793;SDS011;380;48.738;9.214;2023-02-05T06:29:54;8.40;;;5.67;;
793;SDS011;380;48.738;9.214;2023-02-05T06:32:20;8.50;;;6.07;;
793;SDS011;380;48.738;9.214;2023-02-05T06:34:46;8.40;;;6.70;;
793;SDS011;380;48.738;9.214;2023-02-05T06:37:12;10.93;;;5.63;;
793;SDS011;380;48.738;9.214;2023-02-05T06:39:38;10.40;;;6.97;;
793;SDS011;380;48.738;9.214;2023-02-05T06:42:04;14.57;;;7.30;;
793;SDS011;380;48.738;9.214;2023-02-05T06:44:30;12.80;;;6.23;;
793;SDS011;380;48.738;9.214;2023-02-05T06:46:56;8.30;;;6.13;;
793;SDS011;380;48.738;9.214;2023-02-05T06:49:22;6.37;;;5.57;;
793;SDS011;380;48.738;9.214;2023-02-05T06:51:48;7.93;;;6.30;;
793;SDS011;380;48.738;9.214;2023-02-05T06:54:14;7.63;;;5.87;;
793;SDS011;380;48.738;9.214;2023-02-05T06:56:40;11.93;;;5.97;;
793;SDS011;380;48.738;9.214;2023-02-05T06:59:06;6.93;;;5.77;;
793;SDS011;380;48.738;9.214;2023-02-05T07:01:32;15.13;;;6.23;;
793;SDS011;380;48.738;9.214;2023-02-05T07:03:58;9.77;;;5.90;;
793;SDS011;380;48.738;9.214;2023-02-05T07:06:24;9.20;;;5.53;;
793;SDS011;380;48.738;9.214;2023-02-05T07:08:51;9.47;;;5.33;;
793;SDS011;380;48.738;9.214;2023-02-05T07:11:17;12.27;;;6.73;;
793;SDS011;380;48.738;9.214;2023-02-05T07:13:44;7.23;;;6.47;;
793;SDS011;380;48.738;9.214;2023-02-05T07:16:10;13.10;;;7.20;;
793;SDS011;380;48.738;9.214;2023-02-05T07:18:35;7.10;;;5.83;;
793;SDS011;380;48.738;9.214;2023-02-05T07:21:08;9.23;;;6.30;;
793;SDS011;380;48.738;9.214;2023-02-05T07:23:35;8.80;;;5.23;;
793;SDS011;380;48.738;9.214;2023-02-05T07:26:05;8.87;;;4.87;;
793;SDS011;380;48.738;9.214;2023-02-05T07:28:31;12.20;;;6.15;;
793;SDS011;380;48.738;9.214;2023-02-05T07:31:04;10.37;;;6.40;;
793;SDS011;380;48.738;9.214;2023-02-05T07:33:31;6.97;;;5.33;;
793;SDS011;380;48.738;9.214;2023-02-05T07:35:57;8.07;;;6.13;;
793;SDS011;380;48.738;9.214;2023-02-05T07:38:23;7.33;;;4.87;;
793;SDS011;380;48.738;9.214;2023-02-05T07:40:49;10.70;;;6.60;;
793;SDS011;380;48.738;9.214;2023-02-05T07:43:15;10.67;;;7.77;;
793;SDS011;380;48.738;9.214;2023-02-05T07:45:41;8.87;;;7.17;;
793;SDS011;380;48.738;9.214;2023-02-05T07:48:07;6.43;;;5.00;;
793;SDS011;380;48.738;9.214;2023-02-05T07:50:33;8.17;;;6.27;;
793;SDS011;380;48.738;9.214;2023-02-05T07:52:59;14.03;;;7.50;;
793;SDS011;380;48.738;9.214;2023-02-05T07:55:25;7.33;;;6.53;;
793;SDS011;380;48.738;9.214;2023-02-05T07:57:51;5.17;;;4.63;;
793;SDS011;380;48.738;9.214;2023-02-05T08:00:17;6.00;;;5.43;;
793;SDS011;380;48.738;9.214;2023-02-05T08:02:43;12.00;;;7.93;;
793;SDS011;380;48.738;9.214;2023-02-05T08:05:09;8.60;;;5.57;;
793;SDS011;380;48.738;9.214;2023-02-05T08:07:35;6.90;;;6.20;;
793;SDS011;380;48.738;9.214;2023-02-05T08:10:01;8.47;;;5.80;;
793;SDS011;380;48.738;9.214;2023-02-05T08:12:27;6.07;;;5.30;;
793;SDS011;380;48.738;9.214;2023-02-05T08:14:53;8.60;;;5.97;;
793;SDS011;380;48.738;9.214;2023-02-05T08:17:20;8.57;;;7.68;;
793;SDS011;380;48.738;9.214;2023-02-05T08:19:46;13.00;;;6.95;;
793;SDS011;380;48.738;9.214;2023-02-05T08:22:12;8.27;;;6.43;;
793;SDS011;380;48.738;9.214;2023-02-05T08:24:38;9.03;;;6.23;;
793;SDS011;380;48.738;9.214;2023-02-05T08:27:04;10.53;;;7.53;;
793;SDS011;380;48.738;9.214;2023-02-05T08:29:30;7.10;;;5.73;;
793;SDS011;380;48.738;9.214;2023-02-05T08:31:56;12.40;;;7.30;;
793;SDS011;380;48.738;9.214;2023-02-05T08:34:22;9.67;;;7.10;;
793;SDS011;380;48.738;9.214;2023-02-05T08:36:48;8.93;;;6.10;;
793;SDS011;380;48.738;9.214;2023-02-05T08:39:14;7.10;;;5.80;;
793;SDS011;380;48.738;9.214;2023-02-05T08:41:40;8.70;;;6.57;;
793;SDS011;380;48.738;9.214;2023-02-05T08:44:06;7.10;;;5.67;;
793;SDS011;380;48.738;9.214;2023-02-05T08:46:31;8.23;;;6.57;;
793;SDS011;380;48.738;9.214;2023-02-05T08:48:57;9.63;;;6.43;;
793;SDS011;380;48.738;9.214;2023-02-05T08:51:23;8.50;;;6.60;;
793;SDS011;380;48.738;9.214;2023-02-05T08:53:50;7.70;;;7.00;;
793;SDS011;380;48.738;9.214;2023-02-05T08:56:17;12.03;;;6.83;;
793;SDS011;380;48.738;9.214;2023-02-05T08:58:43;6.87;;;5.83;;
793;SDS011;380;48.738;9.214;2023-02-05T09:01:10;9.93;;;4.45;;
793;SDS011;380;48.738;9.214;2023-02-05T09:03:37;14.17;;;6.97;;
793;SDS011;380;48.738;9.214;2023-02-05T09:06:04;12.25;;;6.55;;
793;SDS011;380;48.738;9.214;2023-02-05T09:08:30;10.53;;;7.67;;
793;SDS011;380;48.738;9.214;2023-02-05T09:10:56;14.00;;;7.03;;
793;SDS011;380;48.738;9.214;2023-02-05T09:13:23;8.30;;;6.83;;
793;SDS011;380;48.738;9.214;2023-02-05T09:15:49;8.57;;;6.93;;
793;SDS011;380;48.738;9.214;2023-02-05T09:18:16;12.50;;;7.30;;
793;SDS011;380;48.738;9.214;2023-02-05T09:20:46;11.93;;;7.90;;
793;SDS011;380;48.738;9.214;2023-02-05T09:23:12;14.75;;;8.70;;
793;SDS011;380;48.738;9.214;2023-02-05T09:25:39;7.00;;;6.32;;
793;SDS011;380;48.738;9.214;2023-02-05T09:28:05;11.37;;;6.97;;
793;SDS011;380;48.738;9.214;2023-02-05T09:30:33;7.97;;;7.18;;
793;SDS011;380;48.738;9.214;2023-02-05T09:32:59;11.23;;;6.77;;
793;SDS011;380;48.738;9.214;2023-02-05T09:35:25;7.10;;;5.35;;
793;SDS011;380;48.738;9.214;2023-02-05T09:37:51;8.48;;;7.47;;
793;SDS011;380;48.738;9.214;2023-02-05T09:40:28;7.85;;;6.60;;
793;SDS011;380;48.738;9.214;2023-02-05T09:50:41;12.10;;;6.95;;
793;SDS011;380;48.738;9.214;2023-02-05T09:53:10;9.30;;;7.37;;
793;SDS011;380;48.738;9.214;2023-02-05T09:55:37;9.55;;;7.90;;
793;SDS011;380;48.738;9.214;2023-02-05T09:58:05;7.75;;;6.75;;
793;SDS011;380;48.738;9.214;2023-02-05T10:00:33;10.17;;;8.20;;
793;SDS011;380;48.738;9.214;2023-02-05T10:05:52;10.35;;;5.55;;
793;SDS011;380;48.738;9.214;2023-02-05T10:08:26;7.05;;;6.00;;
793;SDS011;380;48.738;9.214;2023-02-05T10:10:56;8.00;;;5.90;;
793;SDS011;380;48.738;9.214;2023-02-05T10:13:24;8.47;;;6.73;;
793;SDS011;380;48.738;9.214;2023-02-05T10:18:35;6.38;;;5.35;;
793;SDS011;380;48.738;9.214;2023-02-05T10:26:21;8.03;;;6.57;;
793;SDS011;380;48.738;9.214;2023-02-05T10:31:21;8.33;;;7.40;;
793;SDS011;380;48.738;9.214;2023-02-05T10:33:50;13.13;;;5.33;;
793;SDS011;380;48.738;9.214;2023-02-05T10:36:21;8.38;;;5.43;;
793;SDS011;380;48.738;9.214;2023-02-05T10:38:47;14.63;;;7.37;;
793;SDS011;380;48.738;9.214;2023-02-05T10:43:48;7.97;;;5.65;;
793;SDS011;380;48.738;9.214;2023-02-05T10:46:15;11.13;;;7.15;;
793;SDS011;380;48.738;9.214;2023-02-05T10:48:43;13.73;;;6.55;;
793;SDS011;380;48.738;9.214;2023-02-05T10:51:16;8.63;;;6.75;;
793;SDS011;380;48.738;9.214;2023-02-05T10:53:44;13.38;;;6.35;;
793;SDS011;380;48.738;9.214;2023-02-05T10:56:14;15.27;;;5.38;;
793;SDS011;380;48.738;9.214;2023-02-05T11:01:07;8.90;;;5.30;;
793;SDS011;380;48.738;9.214;2023-02-05T11:03:36;7.32;;;5.55;;
793;SDS011;380;48.738;9.214;2023-02-05T11:06:03;15.43;;;5.95;;
793;SDS011;380;48.738;9.214;2023-02-05T11:08:33;6.10;;;5.50;;
793;SDS011;380;48.738;9.214;2023-02-05T11:10:59;6.18;;;5.15;;
793;SDS011;380;48.738;9.214;2023-02-05T11:13:26;5.07;;;4.45;;
793;SDS011;380;48.738;9.214;2023-02-05T11:18:26;7.32;;;5.25;;
793;SDS011;380;48.738;9.214;2023-02-05T11:20:59;18.52;;;5.07;;
793;SDS011;380;48.738;9.214;2023-02-05T11:23:26;12.15;;;4.90;;
793;SDS011;380;48.738;9.214;2023-02-05T11:25:58;11.38;;;3.92;;
793;SDS011;380;48.738;9.214;2023-02-05T11:28:26;10.82;;;5.43;;
793;SDS011;380;48.738;9.214;2023-02-05T11:30:52;6.05;;;4.78;;
793;SDS011;380;48.738;9.214;2023-02-05T11:38:22;6.93;;;5.82;;
793;SDS011;380;48.738;9.214;2023-02-05T11:40:53;5.07;;;4.05;;
793;SDS011;380;48.738;9.214;2023-02-05T11:43:31;10.48;;;5.38;;
793;SDS011;380;48.738;9.214;2023-02-05T11:45:57;13.07;;;5.78;;
793;SDS011;380;48.738;9.214;2023-02-05T11:50:53;9.35;;;5.72;;
793;SDS011;380;48.738;9.214;2023-02-05T11:53:19;7.90;;;3.83;;
793;SDS011;380;48.738;9.214;2023-02-05T11:55:50;7.80;;;4.95;;
793;SDS011;380;48.738;9.214;2023-02-05T11:58:24;10.70;;;5.20;;
793;SDS011;380;48.738;9.214;2023-02-05T12:00:52;12.57;;;5.93;;
793;SDS011;380;48.738;9.214;2023-02-05T12:03:21;4.65;;;4.00;;
793;SDS011;380;48.738;9.214;2023-02-05T12:05:50;5.80;;;3.70;;
793;SDS011;380;48.738;9.214;2023-02-05T12:08:29;8.52;;;4.35;;
793;SDS011;380;48.738;9.214;2023-02-05T12:16:17;7.80;;;3.42;;
793;SDS011;380;48.738;9.214;2023-02-05T12:26:23;6.68;;;4.00;;
793;SDS011;380;48.738;9.214;2023-02-05T12:39:10;5.03;;;3.75;;
793;SDS011;380;48.738;9.214;2023-02-05T12:46:38;4.70;;;3.70;;
793;SDS011;380;48.738;9.214;2023-02-05T12:59:22;7.70;;;4.57;;
793;SDS011;380;48.738;9.214;2023-02-05T13:01:52;5.60;;;3.33;;
793;SDS011;380;48.738;9.214;2023-02-05T13:04:28;3.40;;;2.72;;
793;SDS011;380;48.738;9.214;2023-02-05T13:07:05;6.38;;;2.97;;
793;SDS011;380;48.738;9.214;2023-02-05T13:09:46;7.60;;;3.97;;
793;SDS011;380;48.738;9.214;2023-02-05T13:12:18;5.97;;;3.67;;
793;SDS011;380;48.738;9.214;2023-02-05T13:14:52;6.35;;;3.78;;
793;SDS011;380;48.738;9.214;2023-02-05T13:17:21;10.43;;;5.35;;
793;SDS011;380;48.738;9.214;2023-02-05T13:19:50;5.15;;;3.90;;
793;SDS011;380;48.738;9.214;2023-02-05T13:22:27;7.15;;;4.38;;
793;SDS011;380;48.738;9.214;2023-02-05T13:25:20;7.80;;;5.72;;
793;SDS011;380;48.738;9.214;2023-02-05T13:28:27;8.63;;;5.25;;
793;SDS011;380;48.738;9.214;2023-02-05T13:31:17;6.50;;;3.85;;
793;SDS011;380;48.738;9.214;2023-02-05T13:33:44;5.05;;;2.80;;
793;SDS011;380;48.738;9.214;2023-02-05T13:49:18;2.85;;;1.77;;
793;SDS011;380;48.738;9.214;2023-02-05T13:52:02;3.83;;;2.45;;
793;SDS011;380;48.738;9.214;2023-02-05T13:57:11;2.85;;;1.85;;
793;SDS011;380;48.738;9.214;2023-02-05T13:59:47;2.63;;;1.85;;
793;SDS011;380;48.738;9.214;2023-02-05T14:04:54;3.78;;;1.80;;
793;SDS011;380;48.738;9.214;2023-02-05T14:07:25;2.72;;;2.10;;
793;SDS011;380;48.738;9.214;2023-02-05T14:12:24;2.75;;;1.77;;
793;SDS011;380;48.738;9.214;2023-02-05T14:20:01;2.27;;;1.90;;
793;SDS011;380;48.738;9.214;2023-02-05T14:25:02;2.55;;;1.75;;
793;SDS011;380;48.738;9.214;2023-02-05T14:29:54;2.57;;;1.77;;
793;SDS011;380;48.738;9.214;2023-02-05T14:35:03;3.33;;;2.07;;
793;SDS011;380;48.738;9.214;2023-02-05T14:37:31;2.47;;;1.70;;
793;SDS011;380;48.738;9.214;2023-02-05T14:39:57;2.40;;;1.93;;
793;SDS011;380;48.738;9.214;2023-02-05T14:42:24;3.00;;;1.50;;
793;SDS011;380;48.738;9.214;2023-02-05T14:44:52;2.90;;;2.40;;
793;SDS011;380;48.738;9.214;2023-02-05T14:47:25;1.67;;;1.15;;
793;SDS011;380;48.738;9.214;2023-02-05T14:49:57;3.53;;;2.40;;
793;SDS011;380;48.738;9.214;2023-02-05T14:52:26;2.67;;;1.90;;
793;SDS011;380;48.738;9.214;2023-02-05T14:55:05;2.88;;;1.48;;
793;SDS011;380;48.738;9.214;2023-02-05T15:05:12;1.85;;;1.15;;
793;SDS011;380;48.738;9.214;2023-02-05T15:07:39;1.87;;;1.50;;
793;SDS011;380;48.738;9.214;2023-02-05T15:10:06;2.10;;;1.80;;
793;SDS011;380;48.738;9.214;2023-02-05T15:12:47;2.67;;;1.80;;
793;SDS011;380;48.738;9.214;2023-02-05T15:15:30;3.20;;;1.70;;
793;SDS011;380;48.738;9.214;2023-02-05T15:18:01;1.85;;;1.52;;
793;SDS011;380;48.738;9.214;2023-02-05T15:20:28;2.35;;;1.63;;
793;SDS011;380;48.738;9.214;2023-02-05T15:25:35;2.20;;;1.57;;
793;SDS011;380;48.738;9.214;2023-02-05T15:28:03;3.13;;;2.37;;
793;SDS011;380;48.738;9.214;2023-02-05T15:30:50;2.20;;;1.80;;
793;SDS011;380;48.738;9.214;2023-02-05T15:33:24;3.40;;;1.87;;
793;SDS011;380;48.738;9.214;2023-02-05T15:35:53;3.95;;;2.25;;
793;SDS011;380;48.738;9.214;2023-02-05T15:38:33;2.00;;;1.40;;
793;SDS011;380;48.738;9.214;2023-02-05T15:41:04;2.40;;;1.67;;
793;SDS011;380;48.738;9.214;2023-02-05T15:43:31;2.03;;;1.37;;
793;SDS011;380;48.738;9.214;2023-02-05T15:45:58;1.40;;;1.17;;
793;SDS011;380;48.738;9.214;2023-02-05T15:48:26;1.88;;;1.05;;
793;SDS011;380;48.738;9.214;2023-02-05T15:51:00;1.60;;;1.38;;
793;SDS011;380;48.738;9.214;2023-02-05T15:53:33;2.95;;;1.90;;
793;SDS011;380;48.738;9.214;2023-02-05T15:56:07;2.40;;;2.03;;
793;SDS011;380;48.738;9.214;2023-02-05T15:58:33;2.70;;;2.00;;
793;SDS011;380;48.738;9.214;2023-02-05T16:00:59;1.80;;;1.33;;
793;SDS011;380;48.738;9.214;2023-02-05T16:03:26;1.87;;;1.43;;
793;SDS011;380;48.738;9.214;2023-02-05T16:05:55;2.13;;;1.20;;
793;SDS011;380;48.738;9.214;2023-02-05T16:08:21;1.73;;;1.30;;
793;SDS011;380;48.738;9.214;2023-02-05T16:10:53;2.80;;;1.67;;
793;SDS011;380;48.738;9.214;2023-02-05T16:13:21;2.28;;;1.48;;
793;SDS011;380;48.738;9.214;2023-02-05T16:15:56;3.08;;;1.52;;
793;SDS011;380;48.738;9.214;2023-02-05T16:20:56;3.17;;;2.10;;
793;SDS011;380;48.738;9.214;2023-02-05T16:23:26;2.63;;;1.67;;
793;SDS011;380;48.738;9.214;2023-02-05T16:25:54;2.63;;;1.80;;
793;SDS011;380;48.738;9.214;2023-02-05T16:28:22;3.13;;;2.00;;
793;SDS011;380;48.738;9.214;2023-02-05T16:30:49;2.37;;;2.03;;
793;SDS011;380;48.738;9.214;2023-02-05T16:33:20;2.40;;;1.73;;
793;SDS011;380;48.738;9.214;2023-02-05T16:35:48;5.20;;;1.90;;
793;SDS011;380;48.738;9.214;2023-02-05T16:38:14;2.43;;;2.20;;
793;SDS011;380;48.738;9.214;2023-02-05T16:40:41;3.73;;;2.70;;
793;SDS011;380;48.738;9.214;2023-02-05T16:43:25;3.13;;;2.30;;
793;SDS011;380;48.738;9.214;2023-02-05T16:46:09;2.00;;;1.73;;
793;SDS011;380;48.738;9.214;2023-02-05T16:54:00;3.60;;;2.50;;
793;SDS011;380;48.738;9.214;2023-02-05T16:56:30;3.33;;;2.40;;
793;SDS011;380;48.738;9.214;2023-02-05T16:58:57;2.07;;;1.33;;
793;SDS011;380;48.738;9.214;2023-02-05T17:01:25;2.78;;;2.20;;
793;SDS011;380;48.738;9.214;2023-02-05T17:03:52;3.97;;;2.90;;
793;SDS011;380;48.738;9.214;2023-02-05T17:06:18;3.73;;;2.43;;
793;SDS011;380;48.738;9.214;2023-02-05T17:08:51;2.40;;;2.03;;
793;SDS011;380;48.738;9.214;2023-02-05T17:11:40;2.63;;;1.90;;
793;SDS011;380;48.738;9.214;2023-02-05T17:17:00;4.93;;;3.20;;
793;SDS011;380;48.738;9.214;2023-02-05T17:19:29;3.90;;;3.27;;
793;SDS011;380;48.738;9.214;2023-02-05T17:24:43;4.77;;;3.17;;
793;SDS011;380;48.738;9.214;2023-02-05T17:30:09;4.43;;;3.00;;
793;SDS011;380;48.738;9.214;2023-02-05T17:32:38;4.68;;;3.92;;
793;SDS011;380;48.738;9.214;2023-02-05T17:35:14;4.75;;;4.18;;
793;SDS011;380;48.738;9.214;2023-02-05T17:37:40;5.93;;;3.70;;
793;SDS011;380;48.738;9.214;2023-02-05T17:40:06;3.63;;;2.53;;
793;SDS011;380;48.738;9.214;2023-02-05T17:42:32;5.47;;;4.43;;
793;SDS011;380;48.738;9.214;2023-02-05T17:44:58;4.97;;;4.53;;
793;SDS011;380;48.738;9.214;2023-02-05T17:47:24;5.47;;;4.82;;
793;SDS011;380;48.738;9.214;2023-02-05T17:49:50;5.43;;;4.73;;
793;SDS011;380;48.738;9.214;2023-02-05T17:52:16;5.18;;;4.68;;
793;SDS011;380;48.738;9.214;2023-02-05T17:54:42;6.57;;;5.20;;
793;SDS011;380;48.738;9.214;2023-02-05T17:57:14;7.13;;;5.67;;
793;SDS011;380;48.738;9.214;2023-02-05T18:02:09;6.80;;;4.67;;
793;SDS011;380;48.738;9.214;2023-02-05T18:04:35;5.50;;;4.78;;
793;SDS011;380;48.738;9.214;2023-02-05T18:07:01;6.68;;;5.82;;
793;SDS011;380;48.738;9.214;2023-02-05T18:09:27;7.93;;;6.85;;
793;SDS011;380;48.738;9.214;2023-02-05T18:11:53;6.20;;;5.40;;
793;SDS011;380;48.738;9.214;2023-02-05T18:14:19;6.78;;;4.40;;
793;SDS011;380;48.738;9.214;2023-02-05T18:16:45;4.20;;;3.70;;
793;SDS011;380;48.738;9.214;2023-02-05T18:19:11;6.83;;;5.90;;
793;SDS011;380;48.738;9.214;2023-02-05T18:21:38;4.67;;;4.23;;
793;SDS011;380;48.738;9.214;2023-02-05T18:24:04;7.43;;;5.67;;
793;SDS011;380;48.738;9.214;2023-02-05T18:26:30;4.83;;;4.03;;
793;SDS011;380;48.738;9.214;2023-02-05T18:28:56;6.70;;;5.20;;
793;SDS011;380;48.738;9.214;2023-02-05T18:31:22;6.23;;;5.60;;
793;SDS011;380;48.738;9.214;2023-02-05T18:33:48;4.57;;;3.50;;